createdAt,value
2023-02-16T00:02:31.565Z,99672.44
2023-02-16T00:05:27.183Z,99667.28
2023-02-16T00:08:12.485Z,99671.66
2023-02-16T00:11:16.356Z,99665.34
2023-02-16T00:14:01.878Z,99662.94
2023-02-16T00:16:47.319Z,99656.63
2023-02-16T00:19:40.715Z,99668.09
2023-02-16T00:22:25.951Z,99672.06
2023-02-16T00:25:11.200Z,99664.56
2023-02-16T00:27:56.404Z,99672.09
2023-02-16T00:30:41.904Z,99672.09
2023-02-16T00:33:27.391Z,99664.94
2023-02-16T00:36:12.909Z,99664.94
2023-02-16T00:38:59.742Z,99657.84
2023-02-16T00:41:51.464Z,99663.38
2023-02-16T00:44:41.686Z,99669.72
2023-02-16T00:47:37.477Z,99661.78
2023-02-16T00:50:27.081Z,99656.25
2023-02-16T00:53:13.041Z,99657.84
2023-02-16T00:55:58.353Z,99659.84
2023-02-16T00:58:43.824Z,99670.91
2023-02-16T01:01:33.395Z,99669.72
2023-02-16T01:04:22.881Z,99668.16
2023-02-16T01:07:30.958Z,99665.75
2023-02-16T01:10:37.326Z,99662.59
2023-02-16T01:13:23.739Z,99653.06
2023-02-16T01:16:15.981Z,99652.69
2023-02-16T01:19:01.299Z,99650.72
2023-02-16T01:21:46.678Z,99642.41
2023-02-16T01:24:31.926Z,99640.44
2023-02-16T01:27:17.029Z,99643.19
2023-02-16T01:30:08.100Z,99643.19
2023-02-16T01:32:55.557Z,99640.44
2023-02-16T01:35:41.474Z,99633.28
2023-02-16T01:38:28.950Z,99636.06
2023-02-16T01:41:48.126Z,99631.72
2023-02-16T01:44:41.281Z,99635.66
2023-02-16T01:47:42.101Z,99642.03
2023-02-16T01:50:43.093Z,99637.66
2023-02-16T01:53:40.401Z,99635.66
2023-02-16T01:56:53.327Z,99633.72
2023-02-16T02:00:05.859Z,99630.94
2023-02-16T02:03:20.424Z,99627.38
2023-02-16T02:06:10.754Z,99623.03
2023-02-16T02:09:05.980Z,99623.84
2023-02-16T02:12:00.659Z,99624.22
2023-02-16T02:14:48.080Z,99617.06
2023-02-16T02:17:34.956Z,99617.91
2023-02-16T02:21:08.495Z,99623.44
2023-02-16T02:24:06.048Z,99616.69
2023-02-16T02:27:15.866Z,99623.44
2023-02-16T02:30:40.694Z,99620.69
2023-02-16T02:33:53.745Z,99630.13
2023-02-16T02:36:50.704Z,99634.91
2023-02-16T02:40:15.372Z,99629.34
2023-02-16T02:43:22.417Z,99619.06
2023-02-16T02:46:14.019Z,99627.38
2023-02-16T02:48:59.785Z,99615.50
2023-02-16T02:51:45.747Z,99617.47
2023-02-16T02:54:55.078Z,99612.72
2023-02-16T02:58:04.382Z,99611.94
2023-02-16T03:00:53.386Z,99607.97
2023-02-16T03:03:46.600Z,99602.41
2023-02-16T03:06:36.766Z,99601.63
2023-02-16T03:12:20.254Z,99605.63
2023-02-16T03:15:05.509Z,99605.63
2023-02-16T03:18:11.634Z,99594.53
2023-02-16T03:21:15.556Z,99593.72
2023-02-16T03:24:20.870Z,99599.25
2023-02-16T03:27:27.385Z,99600.47
2023-02-16T03:30:15.066Z,99594.53
2023-02-16T03:33:00.781Z,99598.47
2023-02-16T03:35:46.371Z,99608.38
2023-02-16T03:38:32.320Z,99599.28
2023-02-16T03:41:17.703Z,99598.88
2023-02-16T03:44:02.895Z,99601.63
2023-02-16T03:46:51.482Z,99611.94
2023-02-16T03:49:36.992Z,99607.19
2023-02-16T03:52:22.294Z,99607.19
2023-02-16T03:55:08.409Z,99607.19
2023-02-16T03:57:53.827Z,99610.78
2023-02-16T04:00:39.521Z,99611.16
2023-02-16T04:03:26.566Z,99614.31
2023-02-16T04:06:11.995Z,99609.56
2023-02-16T04:08:57.302Z,99603.28
2023-02-16T04:12:01.234Z,99602.50
2023-02-16T04:14:46.498Z,99607.25
2023-02-16T04:17:31.892Z,99614.41
2023-02-16T04:20:20.066Z,99618.38
2023-02-16T04:23:05.563Z,99615.63
2023-02-16T04:25:50.981Z,99616.81
2023-02-16T04:28:36.061Z,99618.81
2023-02-16T04:31:21.424Z,99616.84
2023-02-16T04:34:07.102Z,99609.72
2023-02-16T04:36:52.418Z,99606.94
2023-02-16T04:39:37.939Z,99602.22
2023-02-16T04:42:23.613Z,99599.47
2023-02-16T04:45:09.812Z,99601.44
2023-02-16T04:47:55.299Z,99599.47
2023-02-16T04:50:40.686Z,99597.84
2023-02-16T04:53:26.114Z,99601.41
2023-02-16T04:56:12.623Z,99601.78
2023-02-16T04:58:58.065Z,99594.63
2023-02-16T05:01:43.484Z,99589.84
2023-02-16T05:04:29.003Z,99597.34
2023-02-16T05:07:14.511Z,99604.06
2023-02-16T05:09:59.623Z,99597.69
2023-02-16T05:13:03.342Z,99595.31
2023-02-16T05:15:48.653Z,99591.72
2023-02-16T05:18:33.795Z,99596.84
2023-02-16T05:21:31.761Z,99593.28
2023-02-16T05:24:17.281Z,99599.19
2023-02-16T05:27:04.651Z,99602.34
2023-02-16T05:29:50.587Z,99605.50
2023-02-16T05:32:35.669Z,99609.03
2023-02-16T05:35:21.033Z,99609.38
2023-02-16T05:38:06.382Z,99607.81
2023-02-16T05:40:52.009Z,99607.00
2023-02-16T05:43:37.290Z,99614.88
2023-02-16T05:46:23.767Z,99626.78
2023-02-16T05:49:09.884Z,99625.97
2023-02-16T05:51:56.027Z,99609.66
2023-02-16T05:54:41.712Z,99616.41
2023-02-16T05:57:27.320Z,99619.53
2023-02-16T06:00:14.121Z,99620.72
2023-02-16T06:03:00.495Z,99613.56
2023-02-16T06:05:45.817Z,99623.44
2023-02-16T06:08:31.930Z,99618.69
2023-02-16T06:11:37.542Z,99623.06
2023-02-16T06:14:23.568Z,99623.44
2023-02-16T06:17:09.862Z,99619.50
2023-02-16T06:19:59.344Z,99619.91
2023-02-16T06:22:45.398Z,99617.97
2023-02-16T06:25:30.940Z,99627.88
2023-02-16T06:28:17.968Z,99624.34
2023-02-16T06:31:04.614Z,99629.91
2023-02-16T06:33:49.906Z,99633.06
2023-02-16T06:36:35.355Z,99626.78
2023-02-16T06:39:22.198Z,99628.34
2023-02-16T06:42:09.625Z,99633.13
2023-02-16T06:44:55.576Z,99635.13
2023-02-16T06:47:41.303Z,99628.41
2023-02-16T06:50:26.696Z,99633.16
2023-02-16T06:53:13.815Z,99629.19
2023-02-16T06:56:02.832Z,99633.94
2023-02-16T06:58:53.489Z,99624.47
2023-02-16T07:01:39.783Z,99627.25
2023-02-16T07:04:25.125Z,99627.63
2023-02-16T07:07:10.384Z,99625.28
2023-02-16T07:09:55.693Z,99622.53
2023-02-16T07:12:41.559Z,99618.97
2023-02-16T07:15:29.466Z,99618.19
2023-02-16T07:18:15.649Z,99610.28
2023-02-16T07:21:01.844Z,99607.94
2023-02-16T07:23:47.397Z,99607.53
2023-02-16T07:26:33.337Z,99608.31
2023-02-16T07:29:19.132Z,99610.69
2023-02-16T07:32:04.994Z,99619.00
2023-02-16T07:34:50.687Z,99615.03
2023-02-16T07:37:36.276Z,99616.63
2023-02-16T07:40:21.793Z,99612.66
2023-02-16T07:43:07.152Z,99621.34
2023-02-16T07:45:53.027Z,99621.34
2023-02-16T07:48:42.019Z,99616.59
2023-02-16T07:51:30.626Z,99616.59
2023-02-16T07:54:20.687Z,99603.13
2023-02-16T07:57:06.377Z,99607.09
2023-02-16T07:59:55.129Z,99611.03
2023-02-16T08:02:41.071Z,99610.66
2023-02-16T08:05:26.432Z,99609.06
2023-02-16T08:08:11.848Z,99612.22
2023-02-16T08:10:57.030Z,99615.00
2023-02-16T08:13:46.714Z,99622.13
2023-02-16T08:16:33.692Z,99628.84
2023-02-16T08:19:21.687Z,99619.75
2023-02-16T08:22:09.403Z,99625.28
2023-02-16T08:24:55.151Z,99619.75
2023-02-16T08:27:40.453Z,99630.06
2023-02-16T08:30:25.818Z,99621.75
2023-02-16T08:33:11.750Z,99621.75
2023-02-16T08:35:57.040Z,99618.19
2023-02-16T08:38:43.424Z,99623.72
2023-02-16T08:41:33.855Z,99630.06
2023-02-16T08:44:22.170Z,99618.19
2023-02-16T08:47:26.827Z,99609.44
2023-02-16T08:50:12.489Z,99602.28
2023-02-16T08:53:07.493Z,99603.88
2023-02-16T08:55:55.754Z,99614.59
2023-02-16T08:58:41.513Z,99610.22
2023-02-16T09:01:27.585Z,99607.81
2023-02-16T09:04:13.903Z,99607.44
2023-02-16T09:07:00.089Z,99614.16
2023-02-16T09:09:52.147Z,99610.59
2023-02-16T09:12:43.900Z,99601.47
2023-02-16T09:15:30.525Z,99595.91
2023-02-16T09:18:16.627Z,99590.34
2023-02-16T09:21:07.866Z,99591.19
2023-02-16T09:23:56.464Z,99591.97
2023-02-16T09:26:43.031Z,99593.53
2023-02-16T09:29:28.660Z,99599.06
2023-02-16T09:32:15.399Z,99593.53
2023-02-16T09:35:00.808Z,99603.44
2023-02-16T09:37:46.267Z,99599.06
2023-02-16T09:40:31.655Z,99588.78
2023-02-16T09:43:35.077Z,99591.56
2023-02-16T09:46:23.485Z,99595.13
2023-02-16T09:49:42.535Z,99594.72
2023-02-16T09:52:40.691Z,99601.06
2023-02-16T09:55:36.548Z,99591.19
2023-02-16T09:58:28.887Z,99602.25
2023-02-16T10:01:29.105Z,99603.06
2023-02-16T10:04:29.966Z,99598.28
2023-02-16T10:07:21.995Z,99603.44
2023-02-16T10:10:10.998Z,99619.69
2023-02-16T10:13:15.446Z,99610.16
2023-02-16T10:16:05.036Z,99604.63
2023-02-16T10:18:53.857Z,99614.16
2023-02-16T10:21:44.141Z,99611.75
2023-02-16T10:24:34.210Z,99613.31
2023-02-16T10:27:21.837Z,99608.56
2023-02-16T10:30:12.402Z,99604.59
2023-02-16T10:33:10.050Z,99605.38
2023-02-16T10:36:00.865Z,99605.00
2023-02-16T10:38:57.812Z,99600.22
2023-02-16T10:41:49.926Z,99612.47
2023-02-16T10:44:41.223Z,99601.00
2023-02-16T10:47:46.291Z,99588.72
2023-02-16T10:50:36.062Z,99584.34
2023-02-16T10:53:35.330Z,99587.13
2023-02-16T10:56:53.065Z,99587.50
2023-02-16T10:59:46.235Z,99588.69
2023-02-16T11:02:48.365Z,99587.88
2023-02-16T11:05:38.637Z,99593.44
2023-02-16T11:08:28.271Z,99586.69
2023-02-16T11:11:17.253Z,99583.91
2023-02-16T11:14:27.636Z,99583.13
2023-02-16T11:17:16.672Z,99580.75
2023-02-16T11:20:09.468Z,99585.13
2023-02-16T11:23:32.638Z,99583.13
2023-02-16T11:26:26.877Z,99571.25
2023-02-16T11:29:20.212Z,99572.03
2023-02-16T11:32:10.826Z,99562.16
2023-02-16T11:34:57.704Z,99564.53
2023-02-16T11:37:44.143Z,99560.94
2023-02-16T11:40:33.363Z,99558.56
2023-02-16T11:43:19.297Z,99553.78
2023-02-16T11:46:16.633Z,99547.44
2023-02-16T11:49:22.351Z,99549.81
2023-02-16T11:52:27.820Z,99545.84
2023-02-16T11:55:34.499Z,99532.41
2023-02-16T11:58:25.324Z,99536.34
2023-02-16T12:01:47.123Z,99531.97
2023-02-16T12:04:51.061Z,99527.22
2023-02-16T12:08:04.144Z,99525.63
2023-02-16T12:11:14.247Z,99535.56
2023-02-16T12:14:02.924Z,99528.41
2023-02-16T12:17:27.879Z,99526.84
2023-02-16T12:20:13.082Z,99519.72
2023-02-16T12:23:32.155Z,99521.31
2023-02-16T12:26:51.938Z,99519.31
2023-02-16T12:29:54.948Z,99517.72
2023-02-16T12:32:51.297Z,99521.31
2023-02-16T12:36:09.303Z,99511.00
2023-02-16T12:39:06.092Z,99509.81
2023-02-16T12:42:13.219Z,99513.38
2023-02-16T12:45:04.829Z,99502.28
2023-02-16T12:47:55.067Z,99501.50
2023-02-16T12:50:42.167Z,99497.94
2023-02-16T12:53:34.734Z,99491.59
2023-02-16T12:56:34.652Z,99490.44
2023-02-16T12:59:45.023Z,99488.44
2023-02-16T13:02:42.554Z,99489.63
2023-02-16T13:05:32.706Z,99492.81
2023-02-16T13:08:43.732Z,99497.56
2023-02-16T13:11:37.421Z,99484.47
2023-02-16T13:14:27.443Z,99485.66
2023-02-16T13:17:21.062Z,99478.56
2023-02-16T13:20:16.959Z,99481.72
2023-02-16T13:23:40.448Z,99481.22
2023-02-16T13:26:34.996Z,99480.41
2023-02-16T13:29:32.652Z,99482.38
2023-02-16T13:32:24.107Z,99481.13
2023-02-16T13:35:18.548Z,99479.09
2023-02-16T13:38:10.008Z,99474.28
2023-02-16T13:41:20.416Z,99475.06
2023-02-16T13:44:23.866Z,99470.25
2023-02-16T13:47:16.827Z,99471.81
2023-02-16T13:50:08.601Z,99476.56
2023-02-16T13:52:57.482Z,99487.22
2023-02-16T13:55:43.221Z,99481.28
2023-02-16T13:58:31.498Z,99475.72
2023-02-16T14:01:33.154Z,99482.06
2023-02-16T14:04:24.821Z,99484.47
2023-02-16T14:07:31.249Z,99489.16
2023-02-16T14:10:16.778Z,99483.22
2023-02-16T14:13:11.944Z,99482.38
2023-02-16T14:16:04.318Z,99488.31
2023-02-16T14:19:18.437Z,99488.31
2023-02-16T14:22:11.624Z,99487.53
2023-02-16T14:24:58.773Z,99479.94
2023-02-16T14:27:47.898Z,99488.66
2023-02-16T14:30:50.139Z,99492.22
2023-02-16T14:34:02.241Z,99492.19
2023-02-16T14:37:16.216Z,99490.56
2023-02-16T14:40:18.172Z,99490.88
2023-02-16T14:43:12.020Z,99498.41
2023-02-16T14:46:12.862Z,99492.47
2023-02-16T14:49:26.981Z,99499.56
2023-02-16T14:52:18.689Z,99497.59
2023-02-16T14:55:39.773Z,99494.41
2023-02-16T14:58:38.282Z,99494.78
2023-02-16T15:01:24.697Z,99499.91
2023-02-16T15:04:11.881Z,99496.72
2023-02-16T15:07:07.910Z,99496.72
2023-02-16T15:09:58.212Z,99495.91
2023-02-16T15:12:56.903Z,99508.56
2023-02-16T15:15:52.617Z,99503.38
2023-02-16T15:18:48.008Z,99496.66
2023-02-16T15:21:33.335Z,99503.75
2023-02-16T15:24:24.695Z,99494.25
2023-02-16T15:27:24.150Z,99489.03
2023-02-16T15:30:24.943Z,99485.47
2023-02-16T15:33:25.696Z,99483.13
2023-02-16T15:36:28.933Z,99487.47
2023-02-16T15:39:41.341Z,99482.28
2023-02-16T15:42:31.880Z,99483.47
2023-02-16T15:45:27.553Z,99476.38
2023-02-16T15:48:23.374Z,99486.72
2023-02-16T15:51:28.790Z,99493.06
2023-02-16T15:54:33.974Z,99484.00
2023-02-16T15:57:40.622Z,99480.41
2023-02-16T16:00:28.530Z,99479.63
2023-02-16T16:03:18.890Z,99479.25
2023-02-16T16:06:07.773Z,99480.03
2023-02-16T16:09:02.019Z,99472.94
2023-02-16T16:11:49.581Z,99474.16
2023-02-16T16:14:40.485Z,99478.09
2023-02-16T16:17:39.577Z,99474.97
2023-02-16T16:20:32.076Z,99481.72
2023-02-16T16:23:17.393Z,99482.53
2023-02-16T16:26:22.743Z,99477.81
2023-02-16T16:29:48.900Z,99482.63
2023-02-16T16:35:33.551Z,99487.50
2023-02-16T16:38:37.110Z,99492.25
2023-02-16T16:41:28.228Z,99481.97
2023-02-16T16:44:35.420Z,99485.59
2023-02-16T16:47:24.072Z,99492.38
2023-02-16T16:50:15.052Z,99482.06
2023-02-16T16:53:01.639Z,99486.81
2023-02-16T16:55:46.987Z,99482.88
2023-02-16T16:58:32.196Z,99487.22
2023-02-16T17:01:19.107Z,99486.44
2023-02-16T17:04:07.002Z,99493.22
2023-02-16T17:06:53.470Z,99487.66
2023-02-16T17:09:38.755Z,99479.75
2023-02-16T17:12:25.652Z,99483.28
2023-02-16T17:15:27.435Z,99484.13
2023-02-16T17:18:21.227Z,99489.69
2023-02-16T17:21:07.620Z,99498.47
2023-02-16T17:23:53.653Z,99499.69
2023-02-16T17:26:41.152Z,99487.84
2023-02-16T17:29:27.990Z,99485.47
2023-02-16T17:32:14.254Z,99480.75
2023-02-16T17:34:59.941Z,99484.72
2023-02-16T17:37:46.522Z,99473.22
2023-02-16T17:40:32.787Z,99466.53
2023-02-16T17:43:19.413Z,99473.28
2023-02-16T17:46:06.391Z,99461.03
2023-02-16T17:48:55.104Z,99454.28
2023-02-16T17:51:41.124Z,99457.88
2023-02-16T17:54:26.655Z,99462.66
2023-02-16T17:57:13.160Z,99458.31
2023-02-16T17:59:58.806Z,99462.69
2023-02-16T18:02:44.257Z,99466.69
2023-02-16T18:05:30.363Z,99467.06
2023-02-16T18:08:16.200Z,99470.25
2023-02-16T18:11:02.165Z,99464.75
2023-02-16T18:13:47.720Z,99463.53
2023-02-16T18:16:33.430Z,99465.94
2023-02-16T18:19:19.479Z,99461.59
2023-02-16T18:22:05.072Z,99460.44
2023-02-16T18:24:51.035Z,99467.94
2023-02-16T18:27:36.393Z,99471.94
2023-02-16T18:30:22.080Z,99471.56
2023-02-16T18:33:07.859Z,99462.44
2023-02-16T18:35:56.167Z,99457.31
2023-02-16T18:38:41.692Z,99462.06
2023-02-16T18:41:27.084Z,99472.38
2023-02-16T18:44:12.382Z,99472.38
2023-02-16T18:46:58.332Z,99465.25
2023-02-16T18:49:43.485Z,99470.38
2023-02-16T18:52:28.881Z,99465.25
2023-02-16T18:55:15.858Z,99465.25
2023-02-16T18:58:03.641Z,99466.84
2023-02-16T19:00:49.430Z,99468.41
2023-02-16T19:03:34.857Z,99465.63
2023-02-16T19:06:20.702Z,99473.94
2023-02-16T19:09:06.289Z,99474.72
2023-02-16T19:11:51.790Z,99471.56
2023-02-16T19:14:38.206Z,99478.69
2023-02-16T19:17:23.772Z,99488.19
2023-02-16T19:20:12.201Z,99483.03
2023-02-16T19:22:57.621Z,99485.81
2023-02-16T19:25:43.495Z,99493.34
2023-02-16T19:28:28.729Z,99476.69
2023-02-16T19:31:23.766Z,99479.03
2023-02-16T19:34:09.250Z,99477.09
2023-02-16T19:36:54.794Z,99476.28
2023-02-16T19:39:40.461Z,99469.16
2023-02-16T19:42:26.019Z,99466.78
2023-02-16T19:45:11.386Z,99474.31
2023-02-16T19:47:56.707Z,99468.75
2023-02-16T19:50:42.028Z,99472.31
2023-02-16T19:53:27.779Z,99467.94
2023-02-16T19:56:16.431Z,99478.25
2023-02-16T19:59:02.092Z,99481.81
2023-02-16T20:01:47.932Z,99480.25
2023-02-16T20:04:33.194Z,99486.59
2023-02-16T20:07:18.456Z,99483.81
2023-02-16T20:10:04.023Z,99482.66
2023-02-16T20:12:49.238Z,99485.03
2023-02-16T20:15:34.603Z,99481.47
2023-02-16T20:18:20.209Z,99473.16
2023-02-16T20:21:13.351Z,99472.34
2023-02-16T20:24:01.655Z,99466.38
2023-02-16T20:26:49.145Z,99467.59
2023-02-16T20:29:34.783Z,99465.59
2023-02-16T20:32:24.257Z,99465.59
2023-02-16T20:35:09.994Z,99468.38
2023-02-16T20:37:55.567Z,99464.81
2023-02-16T20:40:41.293Z,99464.41
2023-02-16T20:43:26.754Z,99467.16
2023-02-16T20:46:14.377Z,99462.84
2023-02-16T20:48:59.767Z,99470.72
2023-02-16T20:51:45.346Z,99463.22
2023-02-16T20:54:31.607Z,99459.63
2023-02-16T20:57:26.500Z,99457.28
2023-02-16T21:00:18.848Z,99466.38
2023-02-16T21:03:04.366Z,99461.63
2023-02-16T21:05:49.959Z,99458.06
2023-02-16T21:08:35.539Z,99456.84
2023-02-16T21:11:20.876Z,99458.44
2023-02-16T21:14:07.745Z,99454.09
2023-02-16T21:16:53.132Z,99448.53
2023-02-16T21:19:39.099Z,99446.97
2023-02-16T21:22:24.794Z,99441.44
2023-02-16T21:25:09.979Z,99440.66
2023-02-16T21:27:55.234Z,99427.97
2023-02-16T21:30:40.955Z,99429.97
2023-02-16T21:33:26.202Z,99428.78
2023-02-16T21:36:24.246Z,99421.63
2023-02-16T21:39:09.667Z,99426.41
2023-02-16T21:41:54.924Z,99428.38
2023-02-16T21:44:43.216Z,99416.91
2023-02-16T21:47:47.138Z,99418.53
2023-02-16T21:50:34.449Z,99416.16
2023-02-16T21:53:19.670Z,99418.16
2023-02-16T21:56:17.915Z,99424.88
2023-02-16T21:59:05.245Z,99413.00
2023-02-16T22:01:51.921Z,99419.34
2023-02-16T22:04:37.525Z,99416.19
2023-02-16T22:07:22.737Z,99405.47
2023-02-16T22:10:09.456Z,99399.53
2023-02-16T22:12:56.440Z,99409.41
2023-02-16T22:15:41.697Z,99399.53
2023-02-16T22:18:27.124Z,99394.75
2023-02-16T22:21:12.377Z,99397.13
2023-02-16T22:23:58.213Z,99388.81
2023-02-16T22:26:44.692Z,99390.38
2023-02-16T22:29:29.847Z,99393.16
2023-02-16T22:32:15.210Z,99380.09
2023-02-16T22:35:00.489Z,99386.00
2023-02-16T22:37:45.882Z,99389.97
2023-02-16T22:40:31.224Z,99386.38
2023-02-16T22:43:16.435Z,99382.81
2023-02-16T22:46:11.118Z,99381.63
2023-02-16T22:48:58.679Z,99381.19
2023-02-16T22:51:44.222Z,99381.19
2023-02-16T22:54:29.524Z,99376.44
2023-02-16T22:57:14.884Z,99373.66
2023-02-16T23:00:00.128Z,99365.34
2023-02-16T23:02:45.444Z,99353.47
2023-02-16T23:05:31.504Z,99352.69
2023-02-16T23:08:17.147Z,99343.16
2023-02-16T23:11:04.358Z,99334.84
2023-02-16T23:13:49.860Z,99340.38
2023-02-16T23:16:34.964Z,99328.88
2023-02-16T23:19:26.857Z,99343.97
2023-02-16T23:22:12.271Z,99334.44
2023-02-16T23:25:16.075Z,99348.28
2023-02-16T23:28:02.105Z,99348.28
2023-02-16T23:30:48.104Z,99337.97
2023-02-16T23:33:33.750Z,99334.84
2023-02-16T23:36:19.346Z,99333.66
2023-02-16T23:39:09.716Z,99323.34
2023-02-16T23:41:55.161Z,99325.69
2023-02-16T23:44:40.547Z,99317.78
2023-02-16T23:47:25.933Z,99315.78
2023-02-16T23:50:11.320Z,99318.94
2023-02-16T23:52:56.919Z,99313.03
2023-02-16T23:55:42.177Z,99303.53
2023-02-16T23:58:29.723Z,99297.56
